sensor_id;sensor_type;location;lat;lon;timestamp;temperature;humidity
24250;DHT22;12379;49.820;8.648;2022-09-01T00:01:27;17.80;99.90
24250;DHT22;12379;49.820;8.648;2022-09-01T00:03:54;17.80;99.90
24250;DHT22;12379;49.820;8.648;2022-09-01T00:06:22;17.80;99.90
24250;DHT22;12379;49.820;8.648;2022-09-01T00:08:49;17.90;99.90
24250;DHT22;12379;49.820;8.648;2022-09-01T00:11:16;17.80;99.90
24250;DHT22;12379;49.820;8.648;2022-09-01T00:13:42;17.80;99.90
24250;DHT22;12379;49.820;8.648;2022-09-01T00:16:07;17.90;99.90
24250;DHT22;12379;49.820;8.648;2022-09-01T00:18:33;17.90;99.90
24250;DHT22;12379;49.820;8.648;2022-09-01T00:21:00;17.80;99.90
24250;DHT22;12379;49.820;8.648;2022-09-01T00:23:26;17.70;99.90
24250;DHT22;12379;49.820;8.648;2022-09-01T00:25:52;17.50;99.90
24250;DHT22;12379;49.820;8.648;2022-09-01T00:28:18;17.40;99.90
24250;DHT22;12379;49.820;8.648;2022-09-01T00:30:44;17.50;99.90
24250;DHT22;12379;49.820;8.648;2022-09-01T00:33:10;17.40;99.90
24250;DHT22;12379;49.820;8.648;2022-09-01T00:35:35;17.40;99.90
24250;DHT22;12379;49.820;8.648;2022-09-01T00:38:01;17.30;99.90
24250;DHT22;12379;49.820;8.648;2022-09-01T00:40:27;17.20;99.90
24250;DHT22;12379;49.820;8.648;2022-09-01T00:42:52;17.20;99.90
24250;DHT22;12379;49.820;8.648;2022-09-01T00:45:20;17.20;99.90
24250;DHT22;12379;49.820;8.648;2022-09-01T00:47:47;17.10;99.90
24250;DHT22;12379;49.820;8.648;2022-09-01T00:50:14;17.10;99.90
24250;DHT22;12379;49.820;8.648;2022-09-01T00:52:50;17.00;99.90
24250;DHT22;12379;49.820;8.648;2022-09-01T00:55:22;16.90;99.90
24250;DHT22;12379;49.820;8.648;2022-09-01T00:57:49;16.90;99.90
24250;DHT22;12379;49.820;8.648;2022-09-01T01:00:22;16.90;99.90
24250;DHT22;12379;49.820;8.648;2022-09-01T01:02:49;16.90;99.90
24250;DHT22;12379;49.820;8.648;2022-09-01T01:05:20;16.80;99.90
24250;DHT22;12379;49.820;8.648;2022-09-01T01:07:47;16.80;99.90
24250;DHT22;12379;49.820;8.648;2022-09-01T01:10:15;16.80;99.90
24250;DHT22;12379;49.820;8.648;2022-09-01T01:12:42;16.70;99.90
24250;DHT22;12379;49.820;8.648;2022-09-01T01:15:12;16.60;99.90
24250;DHT22;12379;49.820;8.648;2022-09-01T01:17:38;16.60;99.90
24250;DHT22;12379;49.820;8.648;2022-09-01T01:20:05;16.60;99.90
24250;DHT22;12379;49.820;8.648;2022-09-01T01:23:09;16.50;99.90
24250;DHT22;12379;49.820;8.648;2022-09-01T01:25:58;16.50;99.90
24250;DHT22;12379;49.820;8.648;2022-09-01T01:28:26;16.40;99.90
24250;DHT22;12379;49.820;8.648;2022-09-01T01:31:08;16.40;99.90
24250;DHT22;12379;49.820;8.648;2022-09-01T01:33:44;16.40;99.90
24250;DHT22;12379;49.820;8.648;2022-09-01T01:36:13;16.30;99.90
24250;DHT22;12379;49.820;8.648;2022-09-01T01:38:43;16.30;99.90
24250;DHT22;12379;49.820;8.648;2022-09-01T01:41:10;16.20;99.90
24250;DHT22;12379;49.820;8.648;2022-09-01T01:43:37;16.20;99.90
24250;DHT22;12379;49.820;8.648;2022-09-01T01:46:04;16.30;99.90
24250;DHT22;12379;49.820;8.648;2022-09-01T01:48:30;16.20;99.90
24250;DHT22;12379;49.820;8.648;2022-09-01T01:50:59;16.20;99.90
24250;DHT22;12379;49.820;8.648;2022-09-01T01:53:26;16.10;99.90
24250;DHT22;12379;49.820;8.648;2022-09-01T01:55:52;16.10;99.90
24250;DHT22;12379;49.820;8.648;2022-09-01T01:58:20;16.10;99.90
24250;DHT22;12379;49.820;8.648;2022-09-01T02:00:47;16.10;99.90
24250;DHT22;12379;49.820;8.648;2022-09-01T02:03:15;16.10;99.90
24250;DHT22;12379;49.820;8.648;2022-09-01T02:05:45;16.00;99.90
24250;DHT22;12379;49.820;8.648;2022-09-01T02:08:11;16.10;99.90
24250;DHT22;12379;49.820;8.648;2022-09-01T02:10:43;16.00;99.90
24250;DHT22;12379;49.820;8.648;2022-09-01T02:13:12;16.00;99.90
24250;DHT22;12379;49.820;8.648;2022-09-01T02:15:48;16.00;99.90
24250;DHT22;12379;49.820;8.648;2022-09-01T02:18:17;15.90;99.90
24250;DHT22;12379;49.820;8.648;2022-09-01T02:20:45;15.90;99.90
24250;DHT22;12379;49.820;8.648;2022-09-01T02:23:12;15.90;99.90
24250;DHT22;12379;49.820;8.648;2022-09-01T02:25:41;15.80;99.90
24250;DHT22;12379;49.820;8.648;2022-09-01T02:28:12;15.80;99.90
24250;DHT22;12379;49.820;8.648;2022-09-01T02:30:41;15.80;99.90
24250;DHT22;12379;49.820;8.648;2022-09-01T02:33:07;15.80;99.90
24250;DHT22;12379;49.820;8.648;2022-09-01T02:35:36;15.80;99.90
24250;DHT22;12379;49.820;8.648;2022-09-01T02:38:03;15.70;99.90
24250;DHT22;12379;49.820;8.648;2022-09-01T02:40:30;15.70;99.90
24250;DHT22;12379;49.820;8.648;2022-09-01T02:42:56;15.70;99.90
24250;DHT22;12379;49.820;8.648;2022-09-01T02:45:24;15.70;99.90
24250;DHT22;12379;49.820;8.648;2022-09-01T02:47:50;15.70;99.90
24250;DHT22;12379;49.820;8.648;2022-09-01T02:50:16;15.70;99.90
24250;DHT22;12379;49.820;8.648;2022-09-01T02:52:46;15.70;99.90
24250;DHT22;12379;49.820;8.648;2022-09-01T02:55:17;15.70;99.90
24250;DHT22;12379;49.820;8.648;2022-09-01T02:57:45;15.70;99.90
24250;DHT22;12379;49.820;8.648;2022-09-01T03:00:14;15.70;99.90
24250;DHT22;12379;49.820;8.648;2022-09-01T03:02:56;15.60;99.90
24250;DHT22;12379;49.820;8.648;2022-09-01T03:05:26;15.60;99.90
24250;DHT22;12379;49.820;8.648;2022-09-01T03:07:58;15.60;99.90
24250;DHT22;12379;49.820;8.648;2022-09-01T03:10:27;15.70;99.90
24250;DHT22;12379;49.820;8.648;2022-09-01T03:13:02;15.60;99.90
24250;DHT22;12379;49.820;8.648;2022-09-01T03:15:28;15.60;99.90
24250;DHT22;12379;49.820;8.648;2022-09-01T03:17:55;15.50;99.90
24250;DHT22;12379;49.820;8.648;2022-09-01T03:20:22;15.50;99.90
24250;DHT22;12379;49.820;8.648;2022-09-01T03:22:48;15.60;99.90
24250;DHT22;12379;49.820;8.648;2022-09-01T03:25:14;15.70;99.90
24250;DHT22;12379;49.820;8.648;2022-09-01T03:27:41;15.70;99.90
24250;DHT22;12379;49.820;8.648;2022-09-01T03:30:07;15.70;99.90
24250;DHT22;12379;49.820;8.648;2022-09-01T03:32:32;15.80;99.90
24250;DHT22;12379;49.820;8.648;2022-09-01T03:34:58;15.80;99.90
24250;DHT22;12379;49.820;8.648;2022-09-01T03:37:24;15.80;99.90
24250;DHT22;12379;49.820;8.648;2022-09-01T03:39:51;15.90;99.90
24250;DHT22;12379;49.820;8.648;2022-09-01T03:42:16;15.90;99.90
24250;DHT22;12379;49.820;8.648;2022-09-01T03:44:44;15.90;99.90
24250;DHT22;12379;49.820;8.648;2022-09-01T03:47:09;15.90;99.90
24250;DHT22;12379;49.820;8.648;2022-09-01T03:49:35;15.90;99.90
24250;DHT22;12379;49.820;8.648;2022-09-01T03:52:04;15.90;99.90
24250;DHT22;12379;49.820;8.648;2022-09-01T03:54:33;15.80;99.90
24250;DHT22;12379;49.820;8.648;2022-09-01T03:56:59;15.90;99.90
24250;DHT22;12379;49.820;8.648;2022-09-01T03:59:25;15.90;99.90
24250;DHT22;12379;49.820;8.648;2022-09-01T04:01:53;15.80;99.90
24250;DHT22;12379;49.820;8.648;2022-09-01T04:04:18;15.90;99.90
24250;DHT22;12379;49.820;8.648;2022-09-01T04:06:45;15.90;99.90
24250;DHT22;12379;49.820;8.648;2022-09-01T04:09:10;15.90;99.90
24250;DHT22;12379;49.820;8.648;2022-09-01T04:11:37;15.90;99.90
24250;DHT22;12379;49.820;8.648;2022-09-01T04:14:04;15.80;99.90
24250;DHT22;12379;49.820;8.648;2022-09-01T04:16:32;15.70;99.90
24250;DHT22;12379;49.820;8.648;2022-09-01T04:19:19;15.60;99.90
24250;DHT22;12379;49.820;8.648;2022-09-01T04:21:46;15.60;99.90
24250;DHT22;12379;49.820;8.648;2022-09-01T04:24:14;15.50;99.90
24250;DHT22;12379;49.820;8.648;2022-09-01T04:26:40;15.60;99.90
24250;DHT22;12379;49.820;8.648;2022-09-01T04:29:07;15.60;99.90
24250;DHT22;12379;49.820;8.648;2022-09-01T04:31:35;15.60;99.90
24250;DHT22;12379;49.820;8.648;2022-09-01T04:34:03;15.70;99.90
24250;DHT22;12379;49.820;8.648;2022-09-01T04:36:35;15.70;99.90
24250;DHT22;12379;49.820;8.648;2022-09-01T04:39:03;15.70;99.90
24250;DHT22;12379;49.820;8.648;2022-09-01T04:41:33;15.70;99.90
24250;DHT22;12379;49.820;8.648;2022-09-01T04:44:00;15.70;99.90
24250;DHT22;12379;49.820;8.648;2022-09-01T04:46:31;15.80;99.90
24250;DHT22;12379;49.820;8.648;2022-09-01T04:49:01;15.80;99.90
24250;DHT22;12379;49.820;8.648;2022-09-01T04:51:37;15.90;99.90
24250;DHT22;12379;49.820;8.648;2022-09-01T04:54:03;16.00;99.90
24250;DHT22;12379;49.820;8.648;2022-09-01T04:56:34;16.00;99.90
24250;DHT22;12379;49.820;8.648;2022-09-01T04:59:00;16.10;99.90
24250;DHT22;12379;49.820;8.648;2022-09-01T05:01:32;16.10;99.90
24250;DHT22;12379;49.820;8.648;2022-09-01T05:04:12;16.10;99.90
24250;DHT22;12379;49.820;8.648;2022-09-01T05:06:43;16.10;99.90
24250;DHT22;12379;49.820;8.648;2022-09-01T05:09:10;16.20;99.90
24250;DHT22;12379;49.820;8.648;2022-09-01T05:11:37;16.20;99.90
24250;DHT22;12379;49.820;8.648;2022-09-01T05:14:04;16.20;99.90
24250;DHT22;12379;49.820;8.648;2022-09-01T05:16:32;16.20;99.90
24250;DHT22;12379;49.820;8.648;2022-09-01T05:18:58;16.20;99.90
24250;DHT22;12379;49.820;8.648;2022-09-01T05:21:26;16.20;99.90
24250;DHT22;12379;49.820;8.648;2022-09-01T05:23:54;16.30;99.90
24250;DHT22;12379;49.820;8.648;2022-09-01T05:26:27;16.40;99.90
24250;DHT22;12379;49.820;8.648;2022-09-01T05:29:00;16.40;99.90
24250;DHT22;12379;49.820;8.648;2022-09-01T05:31:28;16.40;99.90
24250;DHT22;12379;49.820;8.648;2022-09-01T05:33:59;16.30;99.90
24250;DHT22;12379;49.820;8.648;2022-09-01T05:36:26;16.40;99.90
24250;DHT22;12379;49.820;8.648;2022-09-01T05:38:53;16.50;99.90
24250;DHT22;12379;49.820;8.648;2022-09-01T05:41:19;16.50;99.90
24250;DHT22;12379;49.820;8.648;2022-09-01T05:43:48;16.50;99.90
24250;DHT22;12379;49.820;8.648;2022-09-01T05:46:18;16.50;99.90
24250;DHT22;12379;49.820;8.648;2022-09-01T05:48:46;16.50;99.90
24250;DHT22;12379;49.820;8.648;2022-09-01T05:51:15;16.60;99.90
24250;DHT22;12379;49.820;8.648;2022-09-01T05:53:44;16.60;99.90
24250;DHT22;12379;49.820;8.648;2022-09-01T05:56:11;16.70;99.90
24250;DHT22;12379;49.820;8.648;2022-09-01T05:58:38;16.80;99.90
24250;DHT22;12379;49.820;8.648;2022-09-01T06:01:05;16.80;99.90
24250;DHT22;12379;49.820;8.648;2022-09-01T06:03:32;16.90;99.90
24250;DHT22;12379;49.820;8.648;2022-09-01T06:06:05;17.00;99.90
24250;DHT22;12379;49.820;8.648;2022-09-01T06:08:34;17.00;99.90
24250;DHT22;12379;49.820;8.648;2022-09-01T06:13:36;17.10;99.90
24250;DHT22;12379;49.820;8.648;2022-09-01T06:16:02;17.10;99.90
24250;DHT22;12379;49.820;8.648;2022-09-01T06:18:27;17.20;99.90
24250;DHT22;12379;49.820;8.648;2022-09-01T06:20:53;17.30;99.90
24250;DHT22;12379;49.820;8.648;2022-09-01T06:23:19;17.30;99.90
24250;DHT22;12379;49.820;8.648;2022-09-01T06:25:45;17.30;99.90
24250;DHT22;12379;49.820;8.648;2022-09-01T06:28:16;17.40;99.90
24250;DHT22;12379;49.820;8.648;2022-09-01T06:30:43;17.50;99.90
24250;DHT22;12379;49.820;8.648;2022-09-01T06:33:10;17.50;99.90
24250;DHT22;12379;49.820;8.648;2022-09-01T06:35:39;17.70;99.90
24250;DHT22;12379;49.820;8.648;2022-09-01T06:38:07;17.80;99.90
24250;DHT22;12379;49.820;8.648;2022-09-01T06:40:34;17.80;99.90
24250;DHT22;12379;49.820;8.648;2022-09-01T06:43:01;17.90;99.90
24250;DHT22;12379;49.820;8.648;2022-09-01T06:45:43;18.00;99.90
24250;DHT22;12379;49.820;8.648;2022-09-01T06:48:09;18.20;99.90
24250;DHT22;12379;49.820;8.648;2022-09-01T06:50:40;18.30;99.90
24250;DHT22;12379;49.820;8.648;2022-09-01T06:53:07;18.40;99.90
24250;DHT22;12379;49.820;8.648;2022-09-01T06:55:37;18.80;99.90
24250;DHT22;12379;49.820;8.648;2022-09-01T06:58:07;19.10;99.90
24250;DHT22;12379;49.820;8.648;2022-09-01T07:00:35;19.30;99.90
24250;DHT22;12379;49.820;8.648;2022-09-01T07:03:10;19.40;99.90
24250;DHT22;12379;49.820;8.648;2022-09-01T07:05:39;19.70;99.90
24250;DHT22;12379;49.820;8.648;2022-09-01T07:08:07;19.90;99.90
24250;DHT22;12379;49.820;8.648;2022-09-01T07:10:40;20.50;99.90
24250;DHT22;12379;49.820;8.648;2022-09-01T07:13:09;21.20;99.90
24250;DHT22;12379;49.820;8.648;2022-09-01T07:15:39;21.20;99.90
24250;DHT22;12379;49.820;8.648;2022-09-01T07:18:05;21.20;99.90
24250;DHT22;12379;49.820;8.648;2022-09-01T07:20:31;21.60;99.90
24250;DHT22;12379;49.820;8.648;2022-09-01T07:23:02;22.80;98.70
24250;DHT22;12379;49.820;8.648;2022-09-01T07:25:28;23.60;96.40
24250;DHT22;12379;49.820;8.648;2022-09-01T07:27:56;23.20;95.70
24250;DHT22;12379;49.820;8.648;2022-09-01T07:30:21;22.60;96.20
24250;DHT22;12379;49.820;8.648;2022-09-01T07:32:48;22.20;96.90
24250;DHT22;12379;49.820;8.648;2022-09-01T07:35:18;22.20;97.40
24250;DHT22;12379;49.820;8.648;2022-09-01T07:37:44;22.50;96.70
24250;DHT22;12379;49.820;8.648;2022-09-01T07:40:12;22.50;96.50
24250;DHT22;12379;49.820;8.648;2022-09-01T07:42:42;22.20;97.00
24250;DHT22;12379;49.820;8.648;2022-09-01T07:45:09;21.90;97.50
24250;DHT22;12379;49.820;8.648;2022-09-01T07:47:35;21.90;97.90
24250;DHT22;12379;49.820;8.648;2022-09-01T07:50:03;22.00;97.80
24250;DHT22;12379;49.820;8.648;2022-09-01T07:52:35;22.20;97.30
24250;DHT22;12379;49.820;8.648;2022-09-01T07:55:08;22.10;97.40
24250;DHT22;12379;49.820;8.648;2022-09-01T07:57:36;21.90;97.70
24250;DHT22;12379;49.820;8.648;2022-09-01T08:00:04;21.60;98.00
24250;DHT22;12379;49.820;8.648;2022-09-01T08:02:30;21.50;98.40
24250;DHT22;12379;49.820;8.648;2022-09-01T08:04:57;21.50;98.50
24250;DHT22;12379;49.820;8.648;2022-09-01T08:07:23;21.60;98.50
24250;DHT22;12379;49.820;8.648;2022-09-01T08:09:49;21.60;98.50
24250;DHT22;12379;49.820;8.648;2022-09-01T08:12:14;21.40;98.50
24250;DHT22;12379;49.820;8.648;2022-09-01T08:14:40;21.40;98.90
24250;DHT22;12379;49.820;8.648;2022-09-01T08:17:06;21.30;99.10
24250;DHT22;12379;49.820;8.648;2022-09-01T08:19:31;21.30;99.20
24250;DHT22;12379;49.820;8.648;2022-09-01T08:21:57;21.30;99.50
24250;DHT22;12379;49.820;8.648;2022-09-01T08:24:22;21.30;99.60
24250;DHT22;12379;49.820;8.648;2022-09-01T08:26:48;21.40;99.30
24250;DHT22;12379;49.820;8.648;2022-09-01T08:29:14;21.40;99.30
24250;DHT22;12379;49.820;8.648;2022-09-01T08:31:39;21.50;99.50
24250;DHT22;12379;49.820;8.648;2022-09-01T08:34:05;21.50;99.10
24250;DHT22;12379;49.820;8.648;2022-09-01T08:36:31;21.50;99.40
24250;DHT22;12379;49.820;8.648;2022-09-01T08:38:57;21.50;99.30
24250;DHT22;12379;49.820;8.648;2022-09-01T08:41:31;21.70;99.50
24250;DHT22;12379;49.820;8.648;2022-09-01T08:44:17;21.80;99.20
24250;DHT22;12379;49.820;8.648;2022-09-01T08:46:45;21.90;98.80
24250;DHT22;12379;49.820;8.648;2022-09-01T08:49:19;22.00;98.60
24250;DHT22;12379;49.820;8.648;2022-09-01T08:52:14;22.20;98.10
24250;DHT22;12379;49.820;8.648;2022-09-01T08:54:46;22.20;97.80
24250;DHT22;12379;49.820;8.648;2022-09-01T08:57:18;22.70;97.30
24250;DHT22;12379;49.820;8.648;2022-09-01T08:59:45;22.90;97.00
24250;DHT22;12379;49.820;8.648;2022-09-01T09:05:49;22.90;96.40
24250;DHT22;12379;49.820;8.648;2022-09-01T09:11:24;22.80;96.70
24250;DHT22;12379;49.820;8.648;2022-09-01T09:16:53;23.10;96.70
24250;DHT22;12379;49.820;8.648;2022-09-01T09:19:27;23.10;96.40
24250;DHT22;12379;49.820;8.648;2022-09-01T09:21:55;23.20;96.30
24250;DHT22;12379;49.820;8.648;2022-09-01T09:26:55;23.60;96.10
24250;DHT22;12379;49.820;8.648;2022-09-01T09:29:23;24.20;95.30
24250;DHT22;12379;49.820;8.648;2022-09-01T09:32:02;24.40;95.00
24250;DHT22;12379;49.820;8.648;2022-09-01T09:34:35;24.70;94.20
24250;DHT22;12379;49.820;8.648;2022-09-01T09:39:41;26.10;92.10
24250;DHT22;12379;49.820;8.648;2022-09-01T09:42:11;26.60;90.50
24250;DHT22;12379;49.820;8.648;2022-09-01T09:44:47;27.00;87.00
24250;DHT22;12379;49.820;8.648;2022-09-01T09:47:41;27.20;84.80
24250;DHT22;12379;49.820;8.648;2022-09-01T09:52:39;27.40;82.50
24250;DHT22;12379;49.820;8.648;2022-09-01T09:55:18;27.50;80.60
24250;DHT22;12379;49.820;8.648;2022-09-01T09:57:47;27.20;81.20
24250;DHT22;12379;49.820;8.648;2022-09-01T10:00:21;27.20;81.20
24250;DHT22;12379;49.820;8.648;2022-09-01T10:02:55;27.30;79.40
24250;DHT22;12379;49.820;8.648;2022-09-01T10:08:13;27.20;80.70
24250;DHT22;12379;49.820;8.648;2022-09-01T10:10:59;27.00;79.40
24250;DHT22;12379;49.820;8.648;2022-09-01T10:13:26;26.80;78.90
24250;DHT22;12379;49.820;8.648;2022-09-01T10:15:57;26.70;78.90
24250;DHT22;12379;49.820;8.648;2022-09-01T10:18:29;26.50;80.50
24250;DHT22;12379;49.820;8.648;2022-09-01T10:23:28;26.60;79.70
24250;DHT22;12379;49.820;8.648;2022-09-01T10:26:36;26.70;79.50
24250;DHT22;12379;49.820;8.648;2022-09-01T10:29:28;26.40;80.50
24250;DHT22;12379;49.820;8.648;2022-09-01T10:31:56;26.50;77.00
24250;DHT22;12379;49.820;8.648;2022-09-01T10:34:23;26.40;78.30
24250;DHT22;12379;49.820;8.648;2022-09-01T10:36:49;26.60;76.40
24250;DHT22;12379;49.820;8.648;2022-09-01T10:39:17;26.50;75.80
24250;DHT22;12379;49.820;8.648;2022-09-01T10:41:48;26.30;77.30
24250;DHT22;12379;49.820;8.648;2022-09-01T10:44:24;26.20;77.70
24250;DHT22;12379;49.820;8.648;2022-09-01T10:46:55;26.10;77.80
24250;DHT22;12379;49.820;8.648;2022-09-01T10:51:54;26.30;76.70
24250;DHT22;12379;49.820;8.648;2022-09-01T10:57:08;26.40;74.90
24250;DHT22;12379;49.820;8.648;2022-09-01T10:59:36;26.10;75.60
24250;DHT22;12379;49.820;8.648;2022-09-01T11:02:16;25.90;76.40
24250;DHT22;12379;49.820;8.648;2022-09-01T11:12:51;25.80;75.50
24250;DHT22;12379;49.820;8.648;2022-09-01T11:15:42;25.70;75.80
24250;DHT22;12379;49.820;8.648;2022-09-01T11:20:47;25.70;75.50
24250;DHT22;12379;49.820;8.648;2022-09-01T11:23:30;25.70;75.00
24250;DHT22;12379;49.820;8.648;2022-09-01T11:26:00;25.70;74.90
24250;DHT22;12379;49.820;8.648;2022-09-01T11:34:14;25.70;75.00
24250;DHT22;12379;49.820;8.648;2022-09-01T11:39:28;25.90;75.60
24250;DHT22;12379;49.820;8.648;2022-09-01T11:42:06;26.10;73.60
24250;DHT22;12379;49.820;8.648;2022-09-01T11:47:05;25.70;74.70
24250;DHT22;12379;49.820;8.648;2022-09-01T11:49:38;25.80;74.50
24250;DHT22;12379;49.820;8.648;2022-09-01T11:52:05;25.90;73.20
24250;DHT22;12379;49.820;8.648;2022-09-01T11:54:41;25.90;74.20
24250;DHT22;12379;49.820;8.648;2022-09-01T11:57:31;25.90;72.90
24250;DHT22;12379;49.820;8.648;2022-09-01T11:59:59;25.70;73.80
24250;DHT22;12379;49.820;8.648;2022-09-01T12:02:31;25.50;74.40
24250;DHT22;12379;49.820;8.648;2022-09-01T12:04:59;25.50;74.60
24250;DHT22;12379;49.820;8.648;2022-09-01T12:09:59;25.60;72.80
24250;DHT22;12379;49.820;8.648;2022-09-01T12:12:35;25.60;73.20
24250;DHT22;12379;49.820;8.648;2022-09-01T12:15:22;25.80;71.70
24250;DHT22;12379;49.820;8.648;2022-09-01T12:17:50;25.90;71.90
24250;DHT22;12379;49.820;8.648;2022-09-01T12:22:44;25.70;71.30
24250;DHT22;12379;49.820;8.648;2022-09-01T12:25:32;25.60;71.10
24250;DHT22;12379;49.820;8.648;2022-09-01T12:28:00;25.60;71.40
24250;DHT22;12379;49.820;8.648;2022-09-01T12:30:26;25.80;70.40
24250;DHT22;12379;49.820;8.648;2022-09-01T12:32:52;25.90;70.30
24250;DHT22;12379;49.820;8.648;2022-09-01T12:35:24;25.80;69.90
24250;DHT22;12379;49.820;8.648;2022-09-01T12:37:50;25.70;70.60
24250;DHT22;12379;49.820;8.648;2022-09-01T12:40:45;25.60;70.70
24250;DHT22;12379;49.820;8.648;2022-09-01T12:43:44;25.50;70.30
24250;DHT22;12379;49.820;8.648;2022-09-01T12:46:10;25.40;71.10
24250;DHT22;12379;49.820;8.648;2022-09-01T12:48:37;25.40;71.20
24250;DHT22;12379;49.820;8.648;2022-09-01T12:51:19;25.40;71.50
24250;DHT22;12379;49.820;8.648;2022-09-01T12:53:53;25.40;71.20
24250;DHT22;12379;49.820;8.648;2022-09-01T12:58:50;25.60;70.40
24250;DHT22;12379;49.820;8.648;2022-09-01T13:01:30;25.60;69.50
24250;DHT22;12379;49.820;8.648;2022-09-01T13:06:32;25.60;69.80
24250;DHT22;12379;49.820;8.648;2022-09-01T13:08:58;25.50;69.30
24250;DHT22;12379;49.820;8.648;2022-09-01T13:11:23;25.50;69.70
24250;DHT22;12379;49.820;8.648;2022-09-01T13:13:49;25.70;69.10
24250;DHT22;12379;49.820;8.648;2022-09-01T13:16:14;25.70;69.00
24250;DHT22;12379;49.820;8.648;2022-09-01T13:18:41;25.70;69.00
24250;DHT22;12379;49.820;8.648;2022-09-01T13:21:07;25.80;67.80
24250;DHT22;12379;49.820;8.648;2022-09-01T13:23:33;25.70;68.10
24250;DHT22;12379;49.820;8.648;2022-09-01T13:25:58;25.60;68.60
24250;DHT22;12379;49.820;8.648;2022-09-01T13:28:25;25.60;69.00
24250;DHT22;12379;49.820;8.648;2022-09-01T13:30:56;25.50;68.70
24250;DHT22;12379;49.820;8.648;2022-09-01T13:33:24;25.60;68.60
24250;DHT22;12379;49.820;8.648;2022-09-01T13:35:50;25.80;67.90
24250;DHT22;12379;49.820;8.648;2022-09-01T13:38:16;26.00;67.20
24250;DHT22;12379;49.820;8.648;2022-09-01T13:40:43;26.20;66.40
24250;DHT22;12379;49.820;8.648;2022-09-01T13:43:10;26.50;65.30
24250;DHT22;12379;49.820;8.648;2022-09-01T13:45:36;26.70;65.30
24250;DHT22;12379;49.820;8.648;2022-09-01T13:48:06;26.70;63.10
24250;DHT22;12379;49.820;8.648;2022-09-01T13:50:32;26.70;63.40
24250;DHT22;12379;49.820;8.648;2022-09-01T13:52:58;26.70;63.80
24250;DHT22;12379;49.820;8.648;2022-09-01T13:55:27;26.70;64.40
24250;DHT22;12379;49.820;8.648;2022-09-01T13:57:53;26.60;63.70
24250;DHT22;12379;49.820;8.648;2022-09-01T14:00:22;26.50;64.70
24250;DHT22;12379;49.820;8.648;2022-09-01T14:02:55;26.70;64.50
24250;DHT22;12379;49.820;8.648;2022-09-01T14:05:26;26.80;64.40
24250;DHT22;12379;49.820;8.648;2022-09-01T14:07:52;26.90;63.40
24250;DHT22;12379;49.820;8.648;2022-09-01T14:10:20;26.80;62.50
24250;DHT22;12379;49.820;8.648;2022-09-01T14:12:47;26.80;62.80
24250;DHT22;12379;49.820;8.648;2022-09-01T14:15:14;26.80;62.00
24250;DHT22;12379;49.820;8.648;2022-09-01T14:17:40;26.70;61.60
24250;DHT22;12379;49.820;8.648;2022-09-01T14:20:09;26.60;62.80
24250;DHT22;12379;49.820;8.648;2022-09-01T14:22:36;26.60;63.40
24250;DHT22;12379;49.820;8.648;2022-09-01T14:25:02;26.60;62.60
24250;DHT22;12379;49.820;8.648;2022-09-01T14:27:28;26.70;62.50
24250;DHT22;12379;49.820;8.648;2022-09-01T14:29:53;26.60;62.60
24250;DHT22;12379;49.820;8.648;2022-09-01T14:32:19;26.40;63.30
24250;DHT22;12379;49.820;8.648;2022-09-01T14:34:55;26.30;63.40
24250;DHT22;12379;49.820;8.648;2022-09-01T14:37:21;26.30;63.30
24250;DHT22;12379;49.820;8.648;2022-09-01T14:39:56;26.10;62.80
24250;DHT22;12379;49.820;8.648;2022-09-01T14:42:22;26.00;62.90
24250;DHT22;12379;49.820;8.648;2022-09-01T14:44:50;25.90;63.60
24250;DHT22;12379;49.820;8.648;2022-09-01T14:47:15;25.80;63.80
24250;DHT22;12379;49.820;8.648;2022-09-01T14:49:41;25.80;63.60
24250;DHT22;12379;49.820;8.648;2022-09-01T14:52:07;25.70;63.90
24250;DHT22;12379;49.820;8.648;2022-09-01T14:54:35;25.70;63.60
24250;DHT22;12379;49.820;8.648;2022-09-01T14:57:01;25.70;64.40
24250;DHT22;12379;49.820;8.648;2022-09-01T14:59:27;25.60;65.10
24250;DHT22;12379;49.820;8.648;2022-09-01T15:01:53;25.70;64.40
24250;DHT22;12379;49.820;8.648;2022-09-01T15:04:18;25.70;64.30
24250;DHT22;12379;49.820;8.648;2022-09-01T15:06:44;25.70;64.50
24250;DHT22;12379;49.820;8.648;2022-09-01T15:09:09;25.70;64.30
24250;DHT22;12379;49.820;8.648;2022-09-01T15:11:35;25.80;63.30
24250;DHT22;12379;49.820;8.648;2022-09-01T15:14:01;25.80;62.80
24250;DHT22;12379;49.820;8.648;2022-09-01T15:16:27;25.70;63.80
24250;DHT22;12379;49.820;8.648;2022-09-01T15:18:53;25.60;64.00
24250;DHT22;12379;49.820;8.648;2022-09-01T15:21:28;25.70;64.30
24250;DHT22;12379;49.820;8.648;2022-09-01T15:23:55;25.70;63.30
24250;DHT22;12379;49.820;8.648;2022-09-01T15:26:21;25.80;62.70
24250;DHT22;12379;49.820;8.648;2022-09-01T15:28:47;25.90;63.40
24250;DHT22;12379;49.820;8.648;2022-09-01T15:31:15;25.80;62.70
24250;DHT22;12379;49.820;8.648;2022-09-01T15:33:42;25.90;63.00
24250;DHT22;12379;49.820;8.648;2022-09-01T15:36:11;26.00;61.80
24250;DHT22;12379;49.820;8.648;2022-09-01T15:38:38;26.00;61.40
24250;DHT22;12379;49.820;8.648;2022-09-01T15:41:04;26.10;60.80
24250;DHT22;12379;49.820;8.648;2022-09-01T15:43:30;26.00;61.50
24250;DHT22;12379;49.820;8.648;2022-09-01T15:45:59;25.80;61.60
24250;DHT22;12379;49.820;8.648;2022-09-01T15:48:27;25.90;61.90
24250;DHT22;12379;49.820;8.648;2022-09-01T15:50:56;26.00;61.90
24250;DHT22;12379;49.820;8.648;2022-09-01T15:53:23;26.10;61.40
24250;DHT22;12379;49.820;8.648;2022-09-01T15:55:48;26.10;60.50
24250;DHT22;12379;49.820;8.648;2022-09-01T15:58:17;26.10;60.80
24250;DHT22;12379;49.820;8.648;2022-09-01T16:00:43;26.10;61.20
24250;DHT22;12379;49.820;8.648;2022-09-01T16:03:10;26.10;61.40
24250;DHT22;12379;49.820;8.648;2022-09-01T16:05:38;26.10;60.30
24250;DHT22;12379;49.820;8.648;2022-09-01T16:08:05;26.10;60.50
24250;DHT22;12379;49.820;8.648;2022-09-01T16:10:37;26.10;61.10
24250;DHT22;12379;49.820;8.648;2022-09-01T16:13:04;26.00;60.00
24250;DHT22;12379;49.820;8.648;2022-09-01T16:15:29;26.00;59.00
24250;DHT22;12379;49.820;8.648;2022-09-01T16:18:07;25.80;59.00
24250;DHT22;12379;49.820;8.648;2022-09-01T16:23:22;25.40;60.50
24250;DHT22;12379;49.820;8.648;2022-09-01T16:25:49;25.40;60.00
24250;DHT22;12379;49.820;8.648;2022-09-01T16:28:32;25.40;60.40
24250;DHT22;12379;49.820;8.648;2022-09-01T16:31:10;25.40;61.10
24250;DHT22;12379;49.820;8.648;2022-09-01T16:33:36;25.30;62.30
24250;DHT22;12379;49.820;8.648;2022-09-01T16:36:26;25.30;61.40
24250;DHT22;12379;49.820;8.648;2022-09-01T16:39:00;25.40;61.00
24250;DHT22;12379;49.820;8.648;2022-09-01T16:44:38;25.20;61.10
24250;DHT22;12379;49.820;8.648;2022-09-01T16:52:38;25.10;61.90
24250;DHT22;12379;49.820;8.648;2022-09-01T17:01:13;25.00;63.00
24250;DHT22;12379;49.820;8.648;2022-09-01T17:06:35;24.80;62.50